createdAt,value
2023-03-18T00:02:04.838Z,1.16
2023-03-18T00:04:33.936Z,1.16
2023-03-18T00:07:03.557Z,1.16
2023-03-18T00:09:33.311Z,1.03
2023-03-18T00:12:02.870Z,1.01
2023-03-18T00:14:33.497Z,0.97
2023-03-18T00:17:03.098Z,0.88
2023-03-18T00:19:33.595Z,0.81
2023-03-18T00:22:02.627Z,0.78
2023-03-18T00:24:31.781Z,0.73
2023-03-18T00:27:01.395Z,0.66
2023-03-18T00:29:30.994Z,0.65
2023-03-18T00:32:01.641Z,0.59
2023-03-18T00:34:31.280Z,0.58
2023-03-18T00:37:00.507Z,0.57
2023-03-18T00:39:33.166Z,0.64
2023-03-18T00:42:10.839Z,0.57
2023-03-18T00:44:40.138Z,0.60
2023-03-18T00:47:10.661Z,0.60
2023-03-18T00:49:39.699Z,0.56
2023-03-18T00:52:08.850Z,0.59
2023-03-18T00:54:38.039Z,0.68
2023-03-18T00:57:07.167Z,0.68
2023-03-18T00:59:37.361Z,0.73
2023-03-18T01:02:06.734Z,0.65
2023-03-18T01:04:37.163Z,0.65
2023-03-18T01:07:06.347Z,0.72
2023-03-18T01:09:36.095Z,0.80
2023-03-18T01:12:06.470Z,0.75
2023-03-18T01:14:36.617Z,0.67
2023-03-18T01:17:06.548Z,0.69
2023-03-18T01:19:37.578Z,0.65
2023-03-18T01:22:07.756Z,0.65
2023-03-18T01:24:45.342Z,0.64
2023-03-18T01:27:16.803Z,0.57
2023-03-18T01:29:49.034Z,0.52
2023-03-18T01:32:24.360Z,0.50
2023-03-18T01:34:55.013Z,0.53
2023-03-18T01:37:26.895Z,0.49
2023-03-18T01:40:10.404Z,0.56
2023-03-18T01:42:41.480Z,0.51
2023-03-18T01:45:19.660Z,0.47
2023-03-18T01:47:51.791Z,0.54
2023-03-18T01:50:25.902Z,0.51
2023-03-18T01:52:59.497Z,0.44
2023-03-18T01:55:32.083Z,0.40
2023-03-18T01:58:04.905Z,0.31
2023-03-18T02:00:34.938Z,0.22
2023-03-18T02:03:05.068Z,0.42
2023-03-18T02:05:36.083Z,0.28
2023-03-18T02:08:05.371Z,0.29
2023-03-18T02:10:35.106Z,0.34
2023-03-18T02:13:08.171Z,0.26
2023-03-18T02:15:47.233Z,0.21
2023-03-18T02:18:21.528Z,0.07
2023-03-18T02:21:07.517Z,-0.01
2023-03-18T02:23:47.325Z,-0.02
2023-03-18T02:26:23.289Z,-0.12
2023-03-18T02:28:58.506Z,-0.21
2023-03-18T02:31:29.600Z,-0.18
2023-03-18T02:34:00.312Z,-0.22
2023-03-18T02:36:31.883Z,-0.14
2023-03-18T02:39:06.312Z,-0.07
2023-03-18T02:41:37.834Z,-0.14
2023-03-18T02:44:09.043Z,-0.03
2023-03-18T02:46:56.473Z,-0.05
2023-03-18T02:49:27.899Z,0.02
2023-03-18T02:51:58.071Z,-0.01
2023-03-18T02:54:29.812Z,-0.04
2023-03-18T02:56:59.476Z,-0.05
2023-03-18T02:59:32.659Z,-0.01
2023-03-18T03:02:02.886Z,-0.04
2023-03-18T03:04:32.229Z,-0.03
2023-03-18T03:07:02.439Z,-0.08
2023-03-18T03:09:45.856Z,-0.18
2023-03-18T03:12:16.496Z,-0.21
2023-03-18T03:14:53.888Z,-0.29
2023-03-18T03:17:22.997Z,-0.24
2023-03-18T03:19:52.624Z,-0.27
2023-03-18T03:22:21.634Z,-0.39
2023-03-18T03:24:51.186Z,-0.32
2023-03-18T03:27:20.628Z,-0.40
2023-03-18T03:29:49.898Z,-0.37
2023-03-18T03:32:22.853Z,-0.29
2023-03-18T03:34:52.641Z,-0.36
2023-03-18T03:37:21.753Z,-0.38
2023-03-18T03:39:50.978Z,-0.44
2023-03-18T03:42:21.376Z,-0.43
2023-03-18T03:44:51.030Z,-0.43
2023-03-18T03:47:21.698Z,-0.39
2023-03-18T03:49:51.380Z,-0.36
2023-03-18T03:52:20.537Z,-0.38
2023-03-18T03:54:50.892Z,-0.43
2023-03-18T03:57:20.734Z,-0.55
2023-03-18T03:59:53.088Z,-0.49
2023-03-18T04:02:30.271Z,-0.47
2023-03-18T04:05:02.541Z,-0.44
2023-03-18T04:07:33.046Z,-0.52
2023-03-18T04:10:03.467Z,-0.56
2023-03-18T04:12:33.444Z,-0.60
2023-03-18T04:15:04.321Z,-0.58
2023-03-18T04:17:36.408Z,-0.63
2023-03-18T04:20:06.358Z,-0.65
2023-03-18T04:22:36.665Z,-0.71
2023-03-18T04:25:09.350Z,-0.66
2023-03-18T04:27:38.959Z,-0.71
2023-03-18T04:30:12.178Z,-0.74
2023-03-18T04:33:00.127Z,-0.76
2023-03-18T04:35:31.276Z,-0.82
2023-03-18T04:38:01.224Z,-0.93
2023-03-18T04:40:31.456Z,-0.82
2023-03-18T04:43:02.089Z,-0.84
2023-03-18T04:45:32.054Z,-0.82
2023-03-18T04:48:06.045Z,-0.75
2023-03-18T04:50:39.989Z,-0.82
2023-03-18T04:53:12.292Z,-0.80
2023-03-18T04:55:45.267Z,-0.85
2023-03-18T04:58:16.686Z,-0.80
2023-03-18T05:00:57.198Z,-0.80
2023-03-18T05:03:34.332Z,-0.85
2023-03-18T05:06:03.889Z,-0.89
2023-03-18T05:08:53.239Z,-0.90
2023-03-18T05:11:25.510Z,-0.85
2023-03-18T05:13:56.360Z,-0.78
2023-03-18T05:16:30.382Z,-0.52
2023-03-18T05:19:00.892Z,-0.13
2023-03-18T05:21:30.684Z,0.15
2023-03-18T05:24:02.051Z,0.54
2023-03-18T05:26:37.739Z,1.05
2023-03-18T05:29:07.720Z,1.59
2023-03-18T05:31:44.057Z,2.02
2023-03-18T05:34:15.473Z,2.37
2023-03-18T05:36:45.615Z,2.63
2023-03-18T05:39:15.033Z,2.65
2023-03-18T05:41:44.214Z,3.02
2023-03-18T05:44:18.337Z,3.41
2023-03-18T05:46:52.509Z,3.73
2023-03-18T05:49:43.375Z,4.00
2023-03-18T05:52:31.377Z,5.15
2023-03-18T05:55:04.833Z,5.77
2023-03-18T05:57:39.034Z,6.53
2023-03-18T06:00:13.919Z,7.42
2023-03-18T06:02:47.791Z,7.85
2023-03-18T06:05:21.354Z,9.04
2023-03-18T06:07:50.825Z,9.86
2023-03-18T06:10:20.537Z,9.93
2023-03-18T06:12:50.968Z,10.48
2023-03-18T06:15:21.608Z,10.82
2023-03-18T06:17:51.894Z,11.07
2023-03-18T06:20:23.645Z,11.25
2023-03-18T06:22:52.680Z,11.43
2023-03-18T06:25:22.866Z,11.74
2023-03-18T06:27:52.565Z,11.98
2023-03-18T06:30:25.492Z,12.02
2023-03-18T06:32:55.108Z,11.74
2023-03-18T06:35:30.608Z,11.09
2023-03-18T06:38:00.062Z,10.65
2023-03-18T06:40:29.418Z,10.67
2023-03-18T06:42:59.403Z,10.33
2023-03-18T06:45:36.559Z,10.34
2023-03-18T06:48:09.872Z,10.32
2023-03-18T06:50:44.338Z,10.15
2023-03-18T06:53:24.474Z,9.96
2023-03-18T06:55:57.478Z,9.96
2023-03-18T06:58:30.824Z,9.91
2023-03-18T07:01:08.810Z,10.09
2023-03-18T07:03:43.855Z,9.75
2023-03-18T07:06:15.806Z,10.07
2023-03-18T07:08:46.456Z,9.95
2023-03-18T07:11:18.592Z,10.09
2023-03-18T07:13:51.513Z,9.92
2023-03-18T07:16:30.998Z,9.83
2023-03-18T07:19:02.149Z,9.74
2023-03-18T07:21:36.112Z,9.96
2023-03-18T07:24:05.975Z,9.95
2023-03-18T07:26:35.063Z,9.75
2023-03-18T07:29:04.964Z,9.94
2023-03-18T07:31:35.444Z,9.90
2023-03-18T07:34:05.240Z,9.96
2023-03-18T07:36:37.314Z,9.93
2023-03-18T07:39:07.025Z,9.74
2023-03-18T07:41:37.786Z,9.21
2023-03-18T07:44:08.276Z,9.08
2023-03-18T07:46:37.417Z,8.86
2023-03-18T07:49:06.464Z,9.27
2023-03-18T07:51:37.542Z,9.13
2023-03-18T07:54:06.904Z,9.18
2023-03-18T07:56:35.967Z,9.35
2023-03-18T07:59:06.351Z,9.41
2023-03-18T08:01:36.137Z,9.58
2023-03-18T08:04:06.230Z,9.46
2023-03-18T08:06:36.800Z,9.74
2023-03-18T08:09:07.443Z,9.75
2023-03-18T08:11:37.222Z,9.75
2023-03-18T08:14:06.281Z,9.73
2023-03-18T08:16:35.308Z,9.97
2023-03-18T08:19:05.723Z,9.89
2023-03-18T08:21:35.644Z,10.24
2023-03-18T08:24:06.669Z,10.66
2023-03-18T08:26:35.839Z,10.74
2023-03-18T08:29:05.253Z,11.16
2023-03-18T08:31:35.040Z,11.20
2023-03-18T08:34:04.164Z,11.51
2023-03-18T08:36:33.183Z,11.52
2023-03-18T08:39:02.468Z,11.45
2023-03-18T08:41:33.838Z,11.10
2023-03-18T08:44:03.739Z,10.80
2023-03-18T08:46:33.484Z,11.43
2023-03-18T08:49:02.532Z,11.15
2023-03-18T08:51:32.916Z,11.45
2023-03-18T08:54:02.177Z,11.57
2023-03-18T08:56:32.593Z,11.29
2023-03-18T08:59:02.382Z,11.01
2023-03-18T09:01:32.043Z,11.42
2023-03-18T09:04:01.320Z,11.75
2023-03-18T09:06:31.036Z,11.95
2023-03-18T09:09:00.179Z,11.83
2023-03-18T09:11:29.456Z,12.12
2023-03-18T09:14:00.323Z,12.46
2023-03-18T09:16:29.387Z,12.62
2023-03-18T09:19:00.146Z,12.66
2023-03-18T09:21:29.163Z,12.87
2023-03-18T09:23:58.333Z,12.78
2023-03-18T09:26:27.532Z,13.31
2023-03-18T09:28:56.813Z,12.83
2023-03-18T09:31:27.304Z,13.29
2023-03-18T09:33:57.040Z,12.66
2023-03-18T09:36:26.306Z,12.76
2023-03-18T09:38:55.563Z,12.78
2023-03-18T09:41:34.366Z,13.00
2023-03-18T09:44:15.519Z,11.89
2023-03-18T09:47:00.544Z,12.12
2023-03-18T09:49:51.866Z,12.44
2023-03-18T09:52:25.759Z,13.07
2023-03-18T09:55:03.590Z,12.71
2023-03-18T09:57:37.184Z,12.97
2023-03-18T10:00:17.855Z,11.77
2023-03-18T10:02:53.479Z,11.56
2023-03-18T10:05:27.987Z,10.85
2023-03-18T10:08:01.458Z,9.84
2023-03-18T10:10:36.879Z,10.02
2023-03-18T10:13:14.344Z,10.01
2023-03-18T10:15:50.682Z,9.90
2023-03-18T10:18:28.801Z,9.54
2023-03-18T10:21:13.371Z,9.86
2023-03-18T10:23:51.111Z,10.02
2023-03-18T10:26:26.070Z,10.03
2023-03-18T10:29:05.417Z,10.03
2023-03-18T10:31:46.685Z,9.99
2023-03-18T10:34:20.307Z,10.06
2023-03-18T10:36:52.750Z,9.71
2023-03-18T10:39:25.161Z,9.82
2023-03-18T10:41:56.061Z,9.45
2023-03-18T10:44:29.302Z,9.41
2023-03-18T10:47:02.443Z,9.25
2023-03-18T10:49:35.318Z,9.32
2023-03-18T10:52:15.584Z,9.08
2023-03-18T10:54:50.814Z,9.08
2023-03-18T10:57:21.764Z,9.06
2023-03-18T10:59:52.452Z,9.00
2023-03-18T11:02:28.157Z,9.02
2023-03-18T11:05:01.873Z,9.23
2023-03-18T11:07:32.530Z,9.24
2023-03-18T11:10:16.817Z,9.60
2023-03-18T11:12:46.257Z,10.32
2023-03-18T11:15:21.467Z,11.36
2023-03-18T11:17:52.021Z,12.28
2023-03-18T11:20:25.643Z,13.19
2023-03-18T11:22:57.826Z,13.53
2023-03-18T11:25:30.190Z,13.70
2023-03-18T11:28:02.160Z,13.94
2023-03-18T11:30:37.250Z,14.26
2023-03-18T11:33:14.641Z,13.98
2023-03-18T11:35:50.862Z,13.22
2023-03-18T11:38:22.639Z,12.94
2023-03-18T11:40:52.356Z,12.45
2023-03-18T11:43:23.164Z,12.04
2023-03-18T11:45:57.672Z,12.16
2023-03-18T11:48:34.472Z,12.60
2023-03-18T11:51:41.529Z,12.68
2023-03-18T11:54:24.135Z,12.46
2023-03-18T11:56:58.883Z,12.42
2023-03-18T11:59:39.899Z,12.33
2023-03-18T12:02:43.461Z,12.40
2023-03-18T12:05:36.381Z,12.00
2023-03-18T12:08:16.692Z,12.31
2023-03-18T12:10:52.802Z,12.31
2023-03-18T12:13:37.437Z,12.21
2023-03-18T12:16:14.777Z,12.83
2023-03-18T12:19:06.822Z,12.63
2023-03-18T12:21:57.567Z,12.03
2023-03-18T12:24:44.170Z,12.50
2023-03-18T12:27:21.600Z,13.18
2023-03-18T12:30:12.002Z,13.07
2023-03-18T12:32:43.847Z,12.58
2023-03-18T12:35:31.510Z,13.21
2023-03-18T12:38:18.924Z,14.17
2023-03-18T12:41:01.240Z,15.36
2023-03-18T12:43:47.311Z,15.91
2023-03-18T12:46:27.453Z,15.71
2023-03-18T12:49:04.052Z,15.34
2023-03-18T12:51:47.800Z,15.57
2023-03-18T12:54:23.865Z,15.76
2023-03-18T12:57:00.151Z,16.18
2023-03-18T12:59:36.619Z,15.97
2023-03-18T13:02:41.510Z,15.64
2023-03-18T13:05:27.079Z,15.57
2023-03-18T13:08:30.399Z,15.76
2023-03-18T13:11:06.368Z,15.73
2023-03-18T13:13:41.724Z,15.35
2023-03-18T13:16:13.956Z,15.44
2023-03-18T13:18:46.559Z,15.46
2023-03-18T13:21:20.832Z,15.13
2023-03-18T13:24:17.703Z,15.22
2023-03-18T13:27:06.321Z,15.20
2023-03-18T13:29:45.266Z,14.60
2023-03-18T13:32:32.294Z,13.58
2023-03-18T13:35:28.136Z,12.95
2023-03-18T13:38:11.821Z,12.50
2023-03-18T13:41:05.991Z,11.83
2023-03-18T13:43:37.162Z,11.69
2023-03-18T13:46:20.968Z,11.72
2023-03-18T13:48:55.351Z,11.58
2023-03-18T13:51:59.888Z,11.51
2023-03-18T13:54:36.085Z,11.82
2023-03-18T13:57:35.393Z,11.96
2023-03-18T14:00:30.888Z,12.25
2023-03-18T14:03:17.458Z,12.31
2023-03-18T14:05:48.173Z,12.21
2023-03-18T14:08:38.627Z,12.63
2023-03-18T14:11:47.104Z,12.67
2023-03-18T14:14:43.487Z,12.80
2023-03-18T14:17:22.569Z,12.51
2023-03-18T14:19:58.503Z,12.56
2023-03-18T14:22:35.903Z,12.66
2023-03-18T14:25:24.757Z,13.28
2023-03-18T14:27:56.744Z,13.31
2023-03-18T14:30:44.446Z,12.60
2023-03-18T14:33:34.940Z,12.53
2023-03-18T14:36:10.494Z,12.30
2023-03-18T14:38:47.610Z,12.44
2023-03-18T14:41:24.779Z,12.35
2023-03-18T14:44:02.506Z,11.96
2023-03-18T14:46:37.691Z,11.77
2023-03-18T14:49:37.235Z,11.69
2023-03-18T14:52:17.725Z,11.75
2023-03-18T14:54:48.451Z,11.82
2023-03-18T14:57:17.672Z,11.93
2023-03-18T14:59:46.630Z,12.05
2023-03-18T15:02:24.933Z,11.72
2023-03-18T15:04:59.870Z,11.48
2023-03-18T15:07:36.282Z,11.50
2023-03-18T15:10:12.176Z,11.34
2023-03-18T15:12:41.799Z,10.83
2023-03-18T15:15:16.461Z,10.59
2023-03-18T15:17:50.434Z,10.55
2023-03-18T15:20:20.782Z,10.58
2023-03-18T15:22:51.806Z,10.51
2023-03-18T15:25:24.665Z,10.68
2023-03-18T15:27:56.744Z,10.58
2023-03-18T15:30:28.960Z,10.68
2023-03-18T15:33:06.936Z,10.39
2023-03-18T15:35:36.945Z,10.22
2023-03-18T15:38:17.652Z,10.09
2023-03-18T15:40:52.709Z,9.96
2023-03-18T15:43:32.975Z,9.82
2023-03-18T15:46:07.587Z,9.64
2023-03-18T15:48:41.201Z,9.54
2023-03-18T15:51:26.137Z,9.41
2023-03-18T15:53:59.368Z,9.42
2023-03-18T15:56:31.762Z,9.38
2023-03-18T15:59:09.249Z,9.33
2023-03-18T16:01:40.165Z,9.36
2023-03-18T16:04:12.967Z,9.35
2023-03-18T16:06:42.237Z,9.20
2023-03-18T16:09:22.859Z,9.15
2023-03-18T16:11:55.003Z,9.10
2023-03-18T16:14:27.534Z,8.98
2023-03-18T16:16:56.758Z,8.79
2023-03-18T16:19:28.501Z,8.76
2023-03-18T16:21:59.363Z,8.70
2023-03-18T16:24:30.041Z,8.66
2023-03-18T16:26:59.698Z,8.60
2023-03-18T16:29:31.985Z,8.62
2023-03-18T16:32:01.418Z,8.61
2023-03-18T16:34:30.644Z,8.50
2023-03-18T16:36:59.880Z,8.41
2023-03-18T16:39:36.694Z,8.30
2023-03-18T16:42:07.036Z,8.23
2023-03-18T16:44:37.196Z,8.13
2023-03-18T16:47:07.523Z,8.04
2023-03-18T16:49:41.196Z,7.99
2023-03-18T16:52:13.530Z,7.91
2023-03-18T16:54:44.360Z,7.76
2023-03-18T16:57:19.687Z,7.82
2023-03-18T16:59:53.059Z,7.71
2023-03-18T17:02:33.083Z,7.58
2023-03-18T17:05:02.713Z,7.59
2023-03-18T17:07:37.023Z,7.48
2023-03-18T17:10:09.572Z,7.45
2023-03-18T17:12:39.377Z,7.39
2023-03-18T17:15:12.194Z,7.36
2023-03-18T17:17:42.222Z,7.25
2023-03-18T17:20:18.529Z,7.12
2023-03-18T17:22:48.534Z,7.09
2023-03-18T17:25:19.253Z,7.01
2023-03-18T17:27:50.914Z,7.00
2023-03-18T17:30:22.108Z,6.82
2023-03-18T17:32:51.931Z,6.95
2023-03-18T17:35:24.600Z,6.89
2023-03-18T17:37:55.924Z,6.90
2023-03-18T17:40:31.998Z,6.82
2023-03-18T17:43:01.448Z,6.76
2023-03-18T17:45:32.598Z,6.69
2023-03-18T17:48:16.264Z,6.65
2023-03-18T17:50:46.301Z,6.75
2023-03-18T17:53:31.568Z,6.74
2023-03-18T17:56:03.443Z,6.63
2023-03-18T17:58:34.673Z,6.46
2023-03-18T18:01:07.368Z,6.45
2023-03-18T18:03:38.076Z,6.41
2023-03-18T18:06:08.289Z,6.40
2023-03-18T18:08:37.593Z,6.33
2023-03-18T18:11:19.174Z,6.21
2023-03-18T18:13:49.031Z,6.12
2023-03-18T18:16:18.996Z,5.86
2023-03-18T18:18:49.877Z,5.91
2023-03-18T18:21:22.183Z,5.96
2023-03-18T18:23:52.694Z,6.01
2023-03-18T18:26:23.334Z,5.81
2023-03-18T18:28:54.521Z,5.86
2023-03-18T18:31:24.368Z,5.71
2023-03-18T18:33:55.956Z,5.74
2023-03-18T18:36:28.350Z,5.77
2023-03-18T18:38:57.462Z,5.57
2023-03-18T18:41:28.771Z,5.62
2023-03-18T18:43:57.894Z,5.49
2023-03-18T18:46:28.459Z,5.40
2023-03-18T18:48:57.656Z,5.44
2023-03-18T18:51:27.654Z,5.40
2023-03-18T18:53:57.097Z,5.26
2023-03-18T18:56:34.911Z,5.46
2023-03-18T18:59:08.742Z,5.42
2023-03-18T19:01:37.751Z,5.40
2023-03-18T19:04:06.964Z,5.38
2023-03-18T19:06:36.893Z,5.23
2023-03-18T19:09:16.748Z,5.35
2023-03-18T19:11:47.996Z,5.35
2023-03-18T19:14:22.058Z,5.35
2023-03-18T19:16:51.773Z,5.44
2023-03-18T19:19:23.101Z,5.44
2023-03-18T19:21:52.452Z,5.43
2023-03-18T19:24:30.634Z,5.36
2023-03-18T19:27:04.408Z,5.29
2023-03-18T19:29:34.853Z,5.26
2023-03-18T19:32:03.900Z,5.20
2023-03-18T19:34:35.492Z,5.11
2023-03-18T19:37:06.140Z,5.09
2023-03-18T19:39:35.168Z,4.95
2023-03-18T19:42:05.990Z,4.98
2023-03-18T19:44:35.213Z,4.88
2023-03-18T19:47:05.157Z,4.79
2023-03-18T19:49:36.725Z,4.72
2023-03-18T19:52:14.002Z,4.72
2023-03-18T19:54:42.981Z,4.60
2023-03-18T19:57:19.212Z,4.58
2023-03-18T19:59:50.744Z,4.52
2023-03-18T20:02:23.390Z,4.14
2023-03-18T20:04:53.529Z,4.27
2023-03-18T20:07:25.277Z,4.20
2023-03-18T20:09:56.279Z,4.23
2023-03-18T20:12:31.452Z,4.16
2023-03-18T20:15:00.404Z,4.12
2023-03-18T20:17:33.066Z,4.11
2023-03-18T20:20:04.025Z,4.11
2023-03-18T20:22:36.011Z,4.09
2023-03-18T20:25:06.887Z,4.04
2023-03-18T20:27:37.369Z,3.95
2023-03-18T20:30:23.579Z,3.91
2023-03-18T20:32:53.454Z,3.97
2023-03-18T20:35:25.024Z,3.88
2023-03-18T20:37:54.649Z,3.81
2023-03-18T20:40:25.842Z,3.69
2023-03-18T20:42:56.970Z,3.67
2023-03-18T20:45:27.165Z,3.65
2023-03-18T20:47:57.439Z,3.58
2023-03-18T20:50:31.407Z,3.40
2023-03-18T20:53:01.011Z,3.59
2023-03-18T20:55:33.169Z,3.59
2023-03-18T20:58:04.561Z,3.32
2023-03-18T21:00:34.533Z,3.43
2023-03-18T21:03:04.512Z,3.46
2023-03-18T21:05:33.802Z,3.37
2023-03-18T21:08:03.011Z,3.29
2023-03-18T21:10:32.110Z,3.14
2023-03-18T21:13:01.165Z,3.19
2023-03-18T21:15:33.020Z,3.15
2023-03-18T21:18:02.905Z,3.15
2023-03-18T21:20:34.061Z,3.13
2023-03-18T21:23:04.088Z,3.11
2023-03-18T21:25:36.504Z,3.14
2023-03-18T21:28:05.622Z,3.18
2023-03-18T21:30:37.300Z,3.02
2023-03-18T21:33:19.292Z,3.06
2023-03-18T21:35:50.661Z,3.10
2023-03-18T21:38:20.766Z,3.06
2023-03-18T21:40:49.884Z,3.01
2023-03-18T21:43:30.629Z,2.80
2023-03-18T21:46:01.916Z,2.65
2023-03-18T21:48:31.832Z,2.55
2023-03-18T21:51:00.961Z,2.46
2023-03-18T21:53:30.574Z,2.44
2023-03-18T21:55:59.820Z,2.39
2023-03-18T21:58:29.571Z,2.22
2023-03-18T22:01:02.173Z,2.04
2023-03-18T22:03:32.706Z,1.94
2023-03-18T22:06:02.443Z,1.91
2023-03-18T22:08:31.480Z,1.81
2023-03-18T22:11:00.891Z,1.70
2023-03-18T22:13:29.854Z,1.63
2023-03-18T22:16:01.501Z,1.56
2023-03-18T22:18:30.464Z,1.47
2023-03-18T22:20:59.999Z,1.43
2023-03-18T22:23:31.516Z,1.46
2023-03-18T22:26:00.615Z,1.46
2023-03-18T22:28:29.525Z,1.50
2023-03-18T22:31:03.320Z,1.55
2023-03-18T22:33:34.866Z,1.61
2023-03-18T22:36:04.460Z,1.67
2023-03-18T22:38:33.457Z,1.63
2023-03-18T22:41:02.607Z,1.61
2023-03-18T22:43:33.866Z,1.69
2023-03-18T22:46:06.726Z,1.71
2023-03-18T22:48:36.202Z,1.70
2023-03-18T22:51:06.237Z,1.75
2023-03-18T22:53:37.548Z,1.74
2023-03-18T22:56:10.837Z,1.74
2023-03-18T22:58:40.173Z,1.81
2023-03-18T23:01:15.552Z,1.81
2023-03-18T23:03:47.023Z,1.80
2023-03-18T23:06:17.818Z,1.86
2023-03-18T23:08:47.079Z,1.80
2023-03-18T23:11:17.357Z,1.81
2023-03-18T23:13:50.127Z,1.73
2023-03-18T23:16:23.381Z,1.60
2023-03-18T23:18:53.990Z,1.52
2023-03-18T23:21:25.634Z,1.51
2023-03-18T23:23:56.509Z,1.41
2023-03-18T23:26:25.444Z,1.40
2023-03-18T23:28:54.482Z,1.37
2023-03-18T23:31:25.017Z,1.38
2023-03-18T23:33:54.491Z,1.37
2023-03-18T23:36:23.401Z,1.37
2023-03-18T23:38:52.548Z,1.37
2023-03-18T23:41:21.560Z,1.38
2023-03-18T23:43:51.070Z,1.53
2023-03-18T23:46:20.206Z,1.61
2023-03-18T23:48:50.718Z,1.65
2023-03-18T23:51:19.767Z,1.66
2023-03-18T23:53:48.784Z,1.64
2023-03-18T23:56:17.793Z,1.72
2023-03-18T23:58:46.820Z,1.62
